Time;durP1;ratioP1;P1;durP2;ratioP2;P2;SDS_P1;SDS_P2;PMS_P1;PMS_P2;Temp;Humidity;BMP_temperature;BMP_pressure;BME280_temperature;BME280_humidity;BME280_pressure;Samples;Min_cycle;Max_cycle;Signal;HPM_P1;HPM_P2
2020/12/24 00:00:00;;;;;;;94.93;54.85;;;256.80;1843.20;;;;;;5055795;28;20021;-67
2020/12/24 00:02:26;;;;;;;88.57;50.22;;;256.80;1843.20;;;;;;5055571;28;20036;-68
2020/12/24 00:04:52;;;;;;;89.03;46.67;;;256.80;1843.20;;;;;;5052520;28;20041;-67
2020/12/24 00:07:18;;;;;;;75.25;43.10;;;256.80;1843.20;;;;;;5055807;28;20048;-67
2020/12/24 00:09:46;;;;;;;66.35;40.17;;;256.80;1843.20;;;;;;5055096;28;20040;-67
2020/12/24 00:12:12;;;;;;;69.38;40.55;;;256.80;1843.20;;;;;;5055070;28;20032;-67
2020/12/24 00:14:39;;;;;;;64.38;38.58;;;256.80;1843.20;;;;;;5055172;28;20031;-66
2020/12/24 00:17:04;;;;;;;61.67;37.20;;;256.80;1843.20;;;;;;5055066;28;20025;-66
2020/12/24 00:19:30;;;;;;;68.72;37.55;;;256.80;1843.20;;;;;;5054907;28;20028;-69
2020/12/24 00:21:56;;;;;;;59.08;36.78;;;256.80;1843.20;;;;;;5062202;28;20044;-68
2020/12/24 00:24:21;;;;;;;65.82;36.78;;;256.80;1843.20;;;;;;5055109;28;20032;-68
2020/12/24 00:26:47;;;;;;;58.70;35.45;;;256.80;1843.20;;;;;;5055236;28;20068;-68
2020/12/24 00:29:13;;;;;;;64.03;36.25;;;256.80;1843.20;;;;;;5054972;28;20021;-68
2020/12/24 00:31:39;;;;;;;61.15;34.58;;;256.80;1843.20;;;;;;5054631;28;20032;-67
2020/12/24 00:34:05;;;;;;;67.82;36.20;;;256.80;1843.20;;;;;;5054076;28;20083;-68
2020/12/24 00:36:31;;;;;;;61.00;35.67;;;256.70;1843.20;;;;;;5054009;28;20023;-68
2020/12/24 00:38:57;;;;;;;65.47;35.97;;;256.70;1843.20;;;;;;5054364;28;20378;-68
2020/12/24 00:41:23;;;;;;;70.97;37.53;;;256.70;1843.20;;;;;;5054329;28;20034;-67
2020/12/24 00:43:49;;;;;;;72.75;36.55;;;256.70;1843.20;;;;;;5054428;28;21040;-69
2020/12/24 00:46:15;;;;;;;82.38;40.63;;;256.70;1843.20;;;;;;5054256;28;20378;-67
2020/12/24 00:48:41;;;;;;;90.82;43.72;;;256.70;1868.80;;;;;;5054123;28;20075;-68
2020/12/24 00:51:07;;;;;;;102.05;46.35;;;256.70;1843.20;;;;;;5054174;28;20033;-68
2020/12/24 00:53:33;;;;;;;108.63;47.08;;;256.70;1868.80;;;;;;5052972;28;20025;-68
2020/12/24 00:55:58;;;;;;;119.07;49.33;;;256.70;1868.80;;;;;;5054536;28;20052;-68
2020/12/24 00:58:24;;;;;;;125.07;50.80;;;256.70;1868.80;;;;;;5054103;28;20037;-68
2020/12/24 01:00:50;;;;;;;105.90;47.83;;;256.70;1868.80;;;;;;5054162;28;20028;-67
2020/12/24 01:03:16;;;;;;;108.20;47.40;;;256.70;1868.80;;;;;;5054145;28;20036;-67
2020/12/24 01:05:42;;;;;;;91.78;44.78;;;256.70;1868.80;;;;;;5053687;28;20040;-68
2020/12/24 01:08:07;;;;;;;80.35;40.83;;;256.60;1868.80;;;;;;5054250;28;20497;-68
2020/12/24 01:10:33;;;;;;;70.13;36.55;;;256.60;1868.80;;;;;;5053966;28;20099;-68
2020/12/24 01:12:59;;;;;;;73.72;36.90;;;256.70;1868.80;;;;;;5054149;28;20047;-68
2020/12/24 01:15:24;;;;;;;68.85;36.83;;;256.70;1868.80;;;;;;5053597;28;20025;-66
2020/12/24 01:17:50;;;;;;;65.97;34.60;;;256.70;1868.80;;;;;;5052682;28;20047;-67
2020/12/24 01:20:16;;;;;;;54.67;32.03;;;256.70;1868.80;;;;;;5053373;28;20020;-67
2020/12/24 01:22:42;;;;;;;61.25;31.70;;;256.70;1868.80;;;;;;5052057;28;20032;-67
2020/12/24 01:25:07;;;;;;;52.72;30.65;;;256.80;1868.80;;;;;;5052662;28;20112;-68
2020/12/24 01:27:33;;;;;;;54.13;30.02;;;256.80;1868.80;;;;;;5053387;28;20087;-69
2020/12/24 01:29:59;;;;;;;44.88;28.23;;;256.80;1868.80;;;;;;5053345;28;20108;-69
2020/12/24 01:32:25;;;;;;;43.15;27.50;;;256.80;1868.80;;;;;;5053272;28;20425;-68
2020/12/24 01:34:51;;;;;;;46.38;27.85;;;256.90;1843.20;;;;;;5053219;28;20025;-68
2020/12/24 01:37:16;;;;;;;42.92;26.42;;;281.60;1868.80;;;;;;5051917;28;20037;-68
2020/12/24 01:39:42;;;;;;;41.10;26.80;;;281.60;1868.80;;;;;;5053155;28;20356;-68
2020/12/24 01:42:08;;;;;;;41.22;26.42;;;281.60;1868.80;;;;;;5053199;28;20045;-68
2020/12/24 01:44:34;;;;;;;43.85;28.10;;;256.90;1843.20;;;;;;5053431;28;20021;-67
2020/12/24 01:47:00;;;;;;;40.90;26.60;;;256.90;1843.20;;;;;;5053410;28;20036;-68
2020/12/24 01:49:26;;;;;;;44.80;28.60;;;256.90;1843.20;;;;;;5052963;28;20080;-67
2020/12/24 01:51:54;;;;;;;49.30;30.70;;;281.60;1868.80;;;;;;5052976;28;20031;-68
2020/12/24 01:54:21;;;;;;;43.42;28.25;;;256.90;1843.20;;;;;;5053001;28;20021;-68
2020/12/24 01:56:48;;;;;;;43.20;28.35;;;256.90;1843.20;;;;;;5052529;28;20378;-68
2020/12/24 01:59:17;;;;;;;42.88;28.15;;;256.90;1843.20;;;;;;5050225;28;20021;-68
2020/12/24 02:01:51;;;;;;;45.50;28.45;;;256.90;1843.20;;;;;;5052656;28;20046;-67
2020/12/24 02:04:17;;;;;;;51.22;28.33;;;256.80;1843.20;;;;;;5050928;28;20056;-67
2020/12/24 02:06:44;;;;;;;53.40;31.45;;;256.80;1843.20;;;;;;5053088;28;20475;-68
2020/12/24 02:09:11;;;;;;;53.60;33.03;;;256.80;1843.20;;;;;;5052476;28;20029;-68
2020/12/24 02:11:40;;;;;;;59.42;34.08;;;256.80;1843.20;;;;;;5052849;28;20021;-67
2020/12/24 02:14:06;;;;;;;56.53;33.63;;;256.80;1843.20;;;;;;5052560;28;20021;-67
2020/12/24 02:16:35;;;;;;;64.95;33.13;;;256.80;1843.20;;;;;;5052490;28;20036;-68
2020/12/24 02:19:05;;;;;;;59.80;34.33;;;256.80;1843.20;;;;;;5050735;28;20085;-68
2020/12/24 02:21:31;;;;;;;60.50;34.22;;;256.80;1868.80;;;;;;5052583;28;20033;-68
2020/12/24 02:23:57;;;;;;;60.30;33.45;;;256.80;1868.80;;;;;;5052612;28;20389;-67
2020/12/24 02:26:23;;;;;;;66.05;35.72;;;256.80;1843.20;;;;;;5052851;28;20029;-68
2020/12/24 02:28:49;;;;;;;57.67;34.53;;;256.80;1843.20;;;;;;5052333;28;20021;-67
2020/12/24 02:31:14;;;;;;;62.28;35.53;;;256.80;1868.80;;;;;;5052508;28;20100;-68
2020/12/24 02:33:40;;;;;;;65.20;36.72;;;256.90;1868.80;;;;;;5052261;28;20033;-68
2020/12/24 02:36:06;;;;;;;72.57;38.38;;;256.80;1843.20;;;;;;5052432;28;20048;-68
2020/12/24 02:38:32;;;;;;;61.50;36.40;;;256.90;1843.20;;;;;;5052134;28;20032;-69
2020/12/24 02:40:58;;;;;;;63.20;36.20;;;256.90;1843.20;;;;;;5052418;28;20463;-68
2020/12/24 02:43:24;;;;;;;65.90;37.15;;;256.90;1843.20;;;;;;5052125;28;20083;-66
2020/12/24 02:45:50;;;;;;;62.45;37.35;;;256.90;1843.20;;;;;;5050993;28;20086;-68
2020/12/24 02:48:16;;;;;;;68.55;38.28;;;256.90;1843.20;;;;;;5051933;28;20461;-68
2020/12/24 02:50:42;;;;;;;66.93;36.95;;;256.90;1843.20;;;;;;5052031;28;20017;-68
2020/12/24 02:53:07;;;;;;;61.22;35.50;;;256.90;1843.20;;;;;;5052631;28;20028;-67
2020/12/24 02:55:33;;;;;;;59.58;35.67;;;256.80;1843.20;;;;;;5050290;28;20029;-67
2020/12/24 02:57:59;;;;;;;62.40;37.30;;;256.80;1843.20;;;;;;5052306;28;20021;-67
2020/12/24 03:00:24;;;;;;;62.53;37.38;;;256.80;1843.20;;;;;;5052213;28;20075;-67
2020/12/24 03:02:50;;;;;;;66.93;37.70;;;256.80;1843.20;;;;;;5051481;28;20055;-67
2020/12/24 03:05:16;;;;;;;60.47;37.53;;;256.70;1843.20;;;;;;5052031;28;20037;-67
2020/12/24 03:07:41;;;;;;;61.28;36.50;;;256.70;1843.20;;;;;;5052404;28;20024;-67
2020/12/24 03:10:07;;;;;;;60.45;36.20;;;256.70;1843.20;;;;;;5051833;28;20017;-68
2020/12/24 03:12:34;;;;;;;59.78;36.03;;;256.60;1843.20;;;;;;5049460;28;20028;-67
2020/12/24 03:15:00;;;;;;;67.25;37.92;;;256.70;1843.20;;;;;;5051991;28;20047;-68
2020/12/24 03:17:25;;;;;;;56.40;35.65;;;256.60;1843.20;;;;;;5051637;28;20047;-67
2020/12/24 03:19:51;;;;;;;56.28;36.00;;;256.60;1868.80;;;;;;5051481;28;20025;-67
2020/12/24 03:22:17;;;;;;;53.90;34.03;;;256.50;1868.80;;;;;;5051756;28;20068;-66
2020/12/24 03:24:42;;;;;;;59.25;35.45;;;256.50;1868.80;;;;;;5051931;28;20027;-68
2020/12/24 03:27:08;;;;;;;54.13;34.78;;;256.50;1843.20;;;;;;5051621;28;20032;-68
2020/12/24 03:29:34;;;;;;;47.33;32.10;;;256.50;1843.20;;;;;;5051501;28;20029;-68
2020/12/24 03:32:00;;;;;;;52.00;32.13;;;256.50;1868.80;;;;;;5052185;28;20017;-68
2020/12/24 03:34:25;;;;;;;52.05;32.25;;;256.50;1843.20;;;;;;5051358;28;20036;-68
2020/12/24 03:36:51;;;;;;;51.33;31.55;;;256.50;1843.20;;;;;;5051589;28;20044;-68
2020/12/24 03:39:17;;;;;;;46.08;32.85;;;256.50;1843.20;;;;;;5051311;28;20021;-68
2020/12/24 03:41:42;;;;;;;51.40;31.88;;;256.50;1843.20;;;;;;5051733;28;20032;-68
2020/12/24 03:44:08;;;;;;;48.33;31.40;;;256.40;1843.20;;;;;;5051613;28;20033;-68
2020/12/24 03:46:35;;;;;;;50.20;32.63;;;256.40;1843.20;;;;;;5051350;28;20024;-68
2020/12/24 03:49:01;;;;;;;48.75;33.10;;;256.40;1868.80;;;;;;5051465;28;20037;-68
2020/12/24 03:51:27;;;;;;;50.42;33.05;;;256.30;1843.20;;;;;;5051903;28;20025;-68
2020/12/24 03:53:52;;;;;;;49.15;32.83;;;256.30;1843.20;;;;;;5051293;28;20138;-68
2020/12/24 03:56:18;;;;;;;48.33;32.30;;;256.30;1843.20;;;;;;5051781;28;20075;-68
2020/12/24 03:58:44;;;;;;;47.13;31.83;;;256.30;1843.20;;;;;;5051456;28;20025;-68
2020/12/24 04:01:10;;;;;;;45.30;31.23;;;256.20;1868.80;;;;;;5051529;28;20021;-68
2020/12/24 04:03:36;;;;;;;47.55;31.88;;;256.20;1843.20;;;;;;5051502;28;20029;-67
2020/12/24 04:06:04;;;;;;;46.67;30.23;;;256.10;1843.20;;;;;;5051299;28;20059;-68
2020/12/24 04:08:30;;;;;;;51.05;32.40;;;256.10;1843.20;;;;;;5051430;28;20021;-68
2020/12/24 04:10:55;;;;;;;46.38;31.70;;;256.10;1868.80;;;;;;5051181;28;20024;-68
2020/12/24 04:13:21;;;;;;;48.63;31.77;;;256.10;1868.80;;;;;;5051366;28;20053;-68
2020/12/24 04:15:47;;;;;;;44.03;30.58;;;256.10;1868.80;;;;;;5051366;28;20029;-68
2020/12/24 04:18:12;;;;;;;44.72;30.80;;;256.10;1868.80;;;;;;5051327;28;20382;-67
2020/12/24 04:20:38;;;;;;;42.50;29.63;;;256.10;1843.20;;;;;;5053516;28;20078;-68
2020/12/24 04:23:04;;;;;;;44.00;30.33;;;256.10;1843.20;;;;;;5054846;28;20040;-67
2020/12/24 04:25:29;;;;;;;46.75;29.92;;;256.10;1868.80;;;;;;5054932;28;20024;-68
2020/12/24 04:27:55;;;;;;;43.75;27.85;;;256.10;1868.80;;;;;;5054428;28;20021;-68
2020/12/24 04:30:21;;;;;;;43.15;28.52;;;256.00;1868.80;;;;;;5054888;28;20074;-68
2020/12/24 04:32:46;;;;;;;41.63;27.13;;;256.00;1843.20;;;;;;5054942;28;20478;-69
2020/12/24 04:35:12;;;;;;;36.33;26.38;;;256.00;1843.20;;;;;;5054623;28;20045;-67
2020/12/24 04:37:38;;;;;;;39.13;26.42;;;256.00;1843.20;;;;;;5054829;28;20025;-67
2020/12/24 04:40:04;;;;;;;44.17;28.80;;;256.00;1843.20;;;;;;5054286;28;20466;-67
2020/12/24 04:42:31;;;;;;;40.08;27.50;;;256.00;1843.20;;;;;;5054882;28;20029;-66
2020/12/24 04:44:59;;;;;;;47.83;28.20;;;256.00;1868.80;;;;;;5054458;28;20104;-66
2020/12/24 04:47:26;;;;;;;39.15;27.58;;;231.30;1868.80;;;;;;5054218;28;20025;-66
2020/12/24 04:49:54;;;;;;;48.28;28.73;;;231.30;1843.20;;;;;;5054062;28;20052;-67
2020/12/24 04:52:20;;;;;;;43.63;28.27;;;231.30;1843.20;;;;;;5054429;28;20025;-69
2020/12/24 04:54:47;;;;;;;45.35;29.40;;;231.30;1868.80;;;;;;5054009;28;20485;-67
2020/12/24 04:57:13;;;;;;;46.83;28.50;;;231.30;1868.80;;;;;;5054378;28;20620;-67
2020/12/24 04:59:39;;;;;;;46.28;29.90;;;231.20;1868.80;;;;;;5054091;28;20036;-68
2020/12/24 05:02:05;;;;;;;44.47;29.60;;;231.20;1868.80;;;;;;5054166;28;20041;-67
2020/12/24 05:04:33;;;;;;;47.80;30.50;;;231.20;1868.80;;;;;;5054155;28;20085;-66
2020/12/24 05:07:07;;;;;;;52.38;31.25;;;231.20;1868.80;;;;;;5052139;28;20082;-68
2020/12/24 05:09:34;;;;;;;49.28;31.65;;;231.20;1868.80;;;;;;5053810;28;20039;-66
2020/12/24 05:12:00;;;;;;;49.42;31.73;;;231.20;1868.80;;;;;;5054471;28;20021;-66
2020/12/24 05:14:28;;;;;;;45.58;30.35;;;231.20;1868.80;;;;;;5053672;28;20044;-67
2020/12/24 05:17:03;;;;;;;46.97;31.10;;;231.30;1868.80;;;;;;5050995;28;20017;-67
2020/12/24 05:19:55;;;;;;;49.40;32.47;;;231.20;1868.80;;;;;;5052932;28;20036;-66
2020/12/24 05:22:23;;;;;;;49.17;33.38;;;231.20;1868.80;;;;;;5051717;28;20051;-67
2020/12/24 05:24:49;;;;;;;48.67;33.47;;;231.20;1868.80;;;;;;5055423;28;20024;-67
2020/12/24 05:27:17;;;;;;;52.53;33.20;;;231.20;1868.80;;;;;;5055366;28;20029;-68
2020/12/24 05:29:44;;;;;;;52.22;34.00;;;231.20;1868.80;;;;;;5055416;28;20520;-68
2020/12/24 05:32:11;;;;;;;54.90;35.78;;;231.20;1868.80;;;;;;5054253;28;20037;-68
2020/12/24 05:34:37;;;;;;;55.55;36.38;;;231.20;1868.80;;;;;;5055081;28;20017;-67
2020/12/24 05:37:17;;;;;;;59.58;37.63;;;231.20;1868.80;;;;;;5055333;28;20047;-68
2020/12/24 05:39:46;;;;;;;64.45;39.45;;;231.20;1868.80;;;;;;5055078;28;20037;-68
2020/12/24 05:42:12;;;;;;;63.10;39.33;;;231.20;1868.80;;;;;;5055013;28;20045;-68
2020/12/24 05:44:39;;;;;;;60.00;39.75;;;231.20;1868.80;;;;;;5054395;28;20039;-68
2020/12/24 05:47:06;;;;;;;62.40;38.88;;;231.20;1868.80;;;;;;5054866;28;20029;-68
2020/12/24 05:49:33;;;;;;;64.30;40.00;;;231.20;1868.80;;;;;;5054992;28;20052;-67
2020/12/24 05:52:02;;;;;;;58.13;38.70;;;231.20;1868.80;;;;;;5055067;28;20108;-69
2020/12/24 05:54:30;;;;;;;60.85;38.65;;;231.20;1868.80;;;;;;5054325;28;20029;-67
2020/12/24 05:56:57;;;;;;;56.30;38.58;;;231.30;1868.80;;;;;;5054922;28;20368;-68
2020/12/24 05:59:25;;;;;;;60.90;40.53;;;231.30;1868.80;;;;;;5054992;28;20060;-67
2020/12/24 06:02:12;;;;;;;59.47;40.22;;;231.30;1843.20;;;;;;5054777;28;20037;-67
2020/12/24 06:04:46;;;;;;;65.72;43.72;;;231.30;1868.80;;;;;;5054391;28;20052;-68
2020/12/24 06:07:19;;;;;;;68.50;45.25;;;231.30;1843.20;;;;;;5054287;28;20031;-68
2020/12/24 06:09:46;;;;;;;62.28;41.45;;;231.30;1843.20;;;;;;5033168;28;20021;-67
2020/12/24 06:12:21;;;;;;;63.22;38.53;;;231.30;1843.20;;;;;;5034554;28;20092;-68
2020/12/24 06:14:50;;;;;;;59.92;36.25;;;231.30;1843.20;;;;;;5034473;28;20029;-68
2020/12/24 06:17:18;;;;;;;55.13;36.22;;;231.30;1868.80;;;;;;5034531;28;20060;-68
2020/12/24 06:19:43;;;;;;;50.30;34.33;;;231.30;1843.20;;;;;;5034660;28;20100;-68
2020/12/24 06:22:10;;;;;;;49.97;34.28;;;231.30;1868.80;;;;;;5034321;28;20575;-67
2020/12/24 06:24:44;;;;;;;49.15;31.95;;;231.30;1843.20;;;;;;5034246;28;20021;-67
2020/12/24 06:27:22;;;;;;;46.85;31.80;;;231.30;1843.20;;;;;;5053725;28;20025;-68
2020/12/24 06:29:50;;;;;;;42.53;28.45;;;256.00;1843.20;;;;;;5054324;28;20121;-68
2020/12/24 06:32:18;;;;;;;43.78;29.05;;;256.00;1843.20;;;;;;5054236;28;20025;-68
2020/12/24 06:34:44;;;;;;;44.13;29.65;;;256.00;1868.80;;;;;;5054299;28;20025;-68
2020/12/24 06:37:19;;;;;;;44.17;29.73;;;256.00;1868.80;;;;;;5054170;28;20371;-68
2020/12/24 06:39:52;;;;;;;49.45;30.00;;;256.10;1843.20;;;;;;5053683;28;20055;-68
2020/12/24 06:42:45;;;;;;;44.03;28.20;;;256.10;1843.20;;;;;;5053271;28;20089;-68
2020/12/24 06:45:34;;;;;;;46.45;27.50;;;256.10;1843.20;;;;;;5051558;28;20025;-68
2020/12/24 06:48:12;;;;;;;45.40;27.27;;;256.20;1843.20;;;;;;5005863;28;20038;-68
2020/12/24 06:50:52;;;;;;;41.95;26.38;;;256.20;1843.20;;;;;;4997122;28;20030;-68
2020/12/24 06:53:18;;;;;;;42.05;26.38;;;256.30;1843.20;;;;;;5012073;28;20041;-68
2020/12/24 06:55:44;;;;;;;42.53;26.20;;;256.30;1843.20;;;;;;4999684;28;20507;-68
2020/12/24 06:58:39;;;;;;;39.72;25.02;;;256.30;1843.20;;;;;;4992515;28;20035;-68
2020/12/24 07:01:05;;;;;;;43.35;26.15;;;256.40;1843.20;;;;;;4992403;28;20524;-68
2020/12/24 07:03:35;;;;;;;40.78;25.90;;;256.50;1843.20;;;;;;4976024;28;20045;-68
2020/12/24 07:06:01;;;;;;;45.50;25.15;;;256.50;1817.60;;;;;;4992315;28;20046;-69
2020/12/24 07:08:32;;;;;;;44.88;27.15;;;256.50;1843.20;;;;;;4999972;28;20060;-68
2020/12/24 07:11:02;;;;;;;39.63;24.98;;;256.60;1817.60;;;;;;5004986;28;20022;-68
2020/12/24 07:13:34;;;;;;;44.00;25.73;;;256.60;1843.20;;;;;;4992377;28;20050;-68
2020/12/24 07:16:01;;;;;;;48.33;28.35;;;256.60;1817.60;;;;;;4992357;28;20026;-68
2020/12/24 07:18:30;;;;;;;54.85;26.80;;;256.60;1817.60;;;;;;4992407;28;20050;-68
2020/12/24 07:21:00;;;;;;;48.45;28.75;;;256.70;1817.60;;;;;;4992521;28;20038;-68
2020/12/24 07:23:40;;;;;;;47.42;27.92;;;256.70;1817.60;;;;;;5002538;28;20044;-68
2020/12/24 07:26:08;;;;;;;46.45;27.42;;;256.80;1817.60;;;;;;5052514;28;20038;-68
2020/12/24 07:28:35;;;;;;;44.78;26.92;;;256.90;1817.60;;;;;;5053645;28;20036;-68
2020/12/24 07:31:06;;;;;;;48.20;26.70;;;256.90;1817.60;;;;;;5053624;28;20051;-68
2020/12/24 07:33:33;;;;;;;42.85;26.92;;;281.60;1843.20;;;;;;5053533;28;20082;-67
2020/12/24 07:36:00;;;;;;;45.60;27.92;;;281.60;1843.20;;;;;;5052140;28;20078;-68
2020/12/24 07:38:30;;;;;;;46.67;27.90;;;281.70;1843.20;;;;;;5053506;28;20025;-68
2020/12/24 07:40:56;;;;;;;47.58;27.50;;;281.70;1843.20;;;;;;5053509;28;20043;-68
2020/12/24 07:43:24;;;;;;;44.03;26.85;;;281.80;1817.60;;;;;;5053053;28;20487;-68
2020/12/24 07:45:50;;;;;;;48.97;27.38;;;281.80;1843.20;;;;;;5053305;28;20021;-68
2020/12/24 07:48:21;;;;;;;43.38;25.85;;;281.80;1843.20;;;;;;5053713;28;20358;-69
2020/12/24 07:50:48;;;;;;;42.67;26.17;;;281.90;1817.60;;;;;;5053348;28;20427;-69
2020/12/24 07:53:26;;;;;;;48.65;26.55;;;281.90;1817.60;;;;;;5053091;28;20021;-68
2020/12/24 07:55:52;;;;;;;46.92;26.58;;;282.00;1817.60;;;;;;5056192;28;20033;-68
2020/12/24 07:58:18;;;;;;;44.53;25.13;;;282.00;1817.60;;;;;;5057183;28;20025;-68
2020/12/24 08:00:46;;;;;;;49.60;27.20;;;282.00;1817.60;;;;;;5057378;28;20033;-68
2020/12/24 08:03:19;;;;;;;52.13;28.33;;;282.10;1817.60;;;;;;5056811;28;20033;-68
2020/12/24 08:05:46;;;;;;;50.17;30.73;;;282.10;1817.60;;;;;;5056744;28;20045;-68
2020/12/24 08:08:22;;;;;;;51.60;29.63;;;282.10;1843.20;;;;;;5054940;28;20028;-67
2020/12/24 08:10:47;;;;;;;45.35;28.27;;;282.20;1817.60;;;;;;5056692;28;20101;-68
2020/12/24 08:13:13;;;;;;;47.50;27.73;;;282.20;1817.60;;;;;;5055382;28;20112;-67
2020/12/24 08:15:46;;;;;;;47.55;26.15;;;282.20;1817.60;;;;;;5056523;28;20538;-68
2020/12/24 08:18:14;;;;;;;43.70;24.85;;;282.20;1817.60;;;;;;5056761;28;20027;-68
2020/12/24 08:20:58;;;;;;;42.92;24.25;;;282.20;1792.00;;;;;;5056591;28;20108;-67
2020/12/24 08:23:46;;;;;;;;;;;282.30;1792.00;;;;;;5056648;28;20044;-67
2020/12/24 08:26:13;;;;;;;35.58;21.25;;;282.30;1792.00;;;;;;5047862;28;19904;-67
2020/12/24 08:28:51;;;;;;;42.15;22.98;;;282.30;1817.60;;;;;;5055801;28;20029;-68
2020/12/24 08:31:19;;;;;;;39.67;22.50;;;282.30;1817.60;;;;;;5055335;28;20033;-68
2020/12/24 08:33:49;;;;;;;41.83;23.17;;;282.30;1792.00;;;;;;5055747;28;20024;-67
2020/12/24 08:36:16;;;;;;;41.42;22.65;;;282.30;1817.60;;;;;;5056445;28;20052;-70
2020/12/24 08:38:42;;;;;;;45.30;23.55;;;282.40;1792.00;;;;;;5055371;28;20047;-68
2020/12/24 08:41:19;;;;;;;41.53;21.52;;;282.50;1817.60;;;;;;5054694;28;20124;-68
2020/12/24 08:43:54;;;;;;;33.55;20.58;;;307.20;1817.60;;;;;;5052820;28;20170;-67
2020/12/24 08:46:20;;;;;;;35.63;21.52;;;307.20;1817.60;;;;;;5054761;28;20082;-67
2020/12/24 08:48:46;;;;;;;35.58;22.45;;;307.20;1817.60;;;;;;5055477;28;20036;-68
2020/12/24 08:51:17;;;;;;;39.83;21.25;;;307.30;1817.60;;;;;;5053013;28;20017;-68
2020/12/24 08:53:43;;;;;;;34.67;21.85;;;307.40;1817.60;;;;;;5055783;28;20055;-68
2020/12/24 08:56:17;;;;;;;42.20;24.17;;;307.40;1817.60;;;;;;5055145;28;20021;-69
2020/12/24 08:58:51;;;;;;;45.35;25.27;;;307.40;1792.00;;;;;;5055603;28;20021;-69
2020/12/24 09:01:18;;;;;;;39.03;24.77;;;307.50;1792.00;;;;;;5055276;28;20037;-69
2020/12/24 09:03:44;;;;;;;45.83;27.45;;;307.50;1792.00;;;;;;5054450;28;20045;-68
2020/12/24 09:06:12;;;;;;;51.42;26.65;;;307.60;1792.00;;;;;;5053388;28;20382;-67
2020/12/24 09:08:39;;;;;;;48.70;26.55;;;307.70;1792.00;;;;;;5052551;28;20463;-67
2020/12/24 09:11:05;;;;;;;50.30;26.58;;;307.70;1792.00;;;;;;5055796;28;20067;-68
2020/12/24 09:13:31;;;;;;;46.88;26.25;;;307.70;1792.00;;;;;;5055664;28;20025;-68
2020/12/24 09:15:56;;;;;;;48.03;27.13;;;307.80;1792.00;;;;;;5055642;28;20116;-68
2020/12/24 09:18:22;;;;;;;54.58;26.58;;;307.80;1766.40;;;;;;5055699;28;20029;-68
2020/12/24 09:20:48;;;;;;;50.85;27.05;;;307.90;1766.40;;;;;;5055353;28;20037;-68
2020/12/24 09:23:15;;;;;;;54.92;28.27;;;307.90;1766.40;;;;;;5055390;28;20035;-68
2020/12/24 09:25:46;;;;;;;48.63;26.58;;;307.90;1766.40;;;;;;5055663;28;20096;-68
2020/12/24 09:28:25;;;;;;;40.95;24.52;;;308.00;1766.40;;;;;;5055424;28;20032;-68
2020/12/24 09:30:58;;;;;;;45.85;25.70;;;308.00;1766.40;;;;;;5054254;28;20475;-67
2020/12/24 09:33:24;;;;;;;49.38;26.90;;;308.10;1766.40;;;;;;5055299;28;20033;-68
2020/12/24 09:35:49;;;;;;;44.97;25.58;;;308.10;1766.40;;;;;;5055262;28;20344;-68
2020/12/24 09:38:15;;;;;;;46.17;25.58;;;332.80;1792.00;;;;;;5055330;28;20056;-68
2020/12/24 09:40:41;;;;;;;47.30;28.58;;;332.80;1792.00;;;;;;5055128;28;20025;-68
2020/12/24 09:43:08;;;;;;;44.90;26.05;;;332.90;1792.00;;;;;;5055079;28;20041;-68
2020/12/24 09:45:36;;;;;;;51.45;30.10;;;333.00;1766.40;;;;;;5055098;28;20100;-68
2020/12/24 09:48:02;;;;;;;60.30;35.35;;;333.00;1766.40;;;;;;5055215;28;20028;-69
2020/12/24 09:50:28;;;;;;;59.88;35.90;;;333.10;1766.40;;;;;;5054349;28;20051;-69
2020/12/24 09:52:54;;;;;;;54.45;31.63;;;333.20;1766.40;;;;;;5055138;28;20033;-69
2020/12/24 09:55:19;;;;;;;47.60;28.23;;;333.30;1766.40;;;;;;5054799;28;20021;-68
2020/12/24 09:57:45;;;;;;;50.00;29.98;;;333.30;1766.40;;;;;;5054837;28;20037;-69
2020/12/24 10:00:12;;;;;;;64.28;26.95;;;333.40;1740.80;;;;;;5054871;28;20025;-69
2020/12/24 10:02:38;;;;;;;46.70;26.75;;;333.40;1740.80;;;;;;5054754;28;20033;-69
2020/12/24 10:05:05;;;;;;;46.42;27.02;;;333.50;1740.80;;;;;;5054042;28;20048;-69
2020/12/24 10:07:31;;;;;;;45.00;24.17;;;333.50;1740.80;;;;;;5054794;28;20100;-68
2020/12/24 10:09:57;;;;;;;47.08;25.10;;;333.50;1740.80;;;;;;5054508;28;20518;-69
2020/12/24 10:12:27;;;;;;;56.35;26.70;;;333.50;1740.80;;;;;;5054559;28;20474;-69
2020/12/24 10:14:54;;;;;;;52.88;26.35;;;333.50;1740.80;;;;;;5054680;28;20112;-69
2020/12/24 10:17:21;;;;;;;54.70;31.50;;;333.60;1740.80;;;;;;5054171;28;20456;-68
2020/12/24 10:19:46;;;;;;;84.90;45.15;;;333.60;1766.40;;;;;;5054688;28;20029;-69
2020/12/24 10:22:14;;;;;;;76.95;42.00;;;333.60;1766.40;;;;;;5054204;28;20398;-69
2020/12/24 10:24:41;;;;;;;75.45;41.70;;;333.60;1766.40;;;;;;5053953;28;20017;-69
2020/12/24 10:27:07;;;;;;;63.25;34.90;;;333.60;1766.40;;;;;;5054012;28;20074;-69
2020/12/24 10:29:34;;;;;;;49.25;30.27;;;333.70;1766.40;;;;;;5054676;28;20378;-69
2020/12/24 10:31:59;;;;;;;46.13;26.92;;;333.70;1766.40;;;;;;5054370;28;20021;-69
2020/12/24 10:34:25;;;;;;;51.25;25.13;;;333.70;1766.40;;;;;;5054324;28;20027;-69
2020/12/24 10:36:51;;;;;;;44.70;24.45;;;333.70;1766.40;;;;;;5054396;28;20025;-69
2020/12/24 10:39:17;;;;;;;39.63;23.55;;;333.70;1766.40;;;;;;5054213;28;20032;-69
2020/12/24 10:41:49;;;;;;;40.83;24.08;;;358.40;1766.40;;;;;;5053891;28;20100;-69
2020/12/24 10:44:15;;;;;;;37.35;23.67;;;358.40;1766.40;;;;;;5053492;28;20033;-68
2020/12/24 10:46:41;;;;;;;42.38;24.23;;;358.40;1766.40;;;;;;5054118;28;20017;-69
2020/12/24 10:49:06;;;;;;;43.72;24.15;;;358.40;1766.40;;;;;;5053394;28;20047;-69
2020/12/24 10:51:32;;;;;;;46.72;26.67;;;358.50;1766.40;;;;;;5053839;28;20029;-69
2020/12/24 10:53:58;;;;;;;48.83;26.38;;;358.50;1766.40;;;;;;5054011;28;20082;-69
2020/12/24 10:56:24;;;;;;;45.35;25.60;;;358.60;1740.80;;;;;;5053377;28;20021;-68
2020/12/24 10:58:50;;;;;;;47.05;25.00;;;358.60;1740.80;;;;;;5051992;28;20078;-67
2020/12/24 11:01:17;;;;;;;40.60;24.25;;;358.60;1740.80;;;;;;5052608;28;20487;-68
2020/12/24 11:03:44;;;;;;;42.20;24.17;;;358.60;1740.80;;;;;;5050671;28;20044;-67
2020/12/24 11:06:17;;;;;;;43.58;24.35;;;358.60;1740.80;;;;;;5052978;28;20040;-68
2020/12/24 11:08:42;;;;;;;39.20;20.73;;;358.70;1740.80;;;;;;5052495;28;20047;-69
2020/12/24 11:11:08;;;;;;;39.40;21.23;;;358.60;1740.80;;;;;;5052750;28;20053;-71
2020/12/24 11:13:34;;;;;;;48.03;23.98;;;358.70;1715.20;;;;;;5053049;28;20033;-70
2020/12/24 11:16:00;;;;;;;71.75;42.72;;;358.70;1715.20;;;;;;5051746;28;20017;-69
2020/12/24 11:18:25;;;;;;;69.00;45.17;;;358.70;1715.20;;;;;;5050972;28;20025;-69
2020/12/24 11:20:53;;;;;;;47.13;28.75;;;358.70;1715.20;;;;;;5053402;28;20451;-74
2020/12/24 11:23:18;;;;;;;45.65;23.08;;;358.80;1715.20;;;;;;5053500;28;20036;-73
2020/12/24 11:25:44;;;;;;;40.92;21.70;;;358.80;1740.80;;;;;;5053222;28;20036;-65
2020/12/24 11:28:10;;;;;;;36.30;20.45;;;358.90;1740.80;;;;;;5053528;28;20037;-69
2020/12/24 11:30:36;;;;;;;34.67;19.85;;;359.00;1715.20;;;;;;5054607;28;20017;-70
2020/12/24 11:33:02;;;;;;;33.22;17.98;;;359.00;1689.60;;;;;;5055092;28;20029;-66
2020/12/24 11:35:28;;;;;;;29.55;16.80;;;359.00;1689.60;;;;;;5056101;28;20032;-69
2020/12/24 11:37:54;;;;;;;27.50;18.05;;;359.10;1689.60;;;;;;5055626;28;20378;-69
2020/12/24 11:40:20;;;;;;;24.60;15.95;;;359.10;1664.00;;;;;;5055880;28;20017;-68
2020/12/24 11:42:46;;;;;;;28.10;16.25;;;359.20;1664.00;;;;;;5055833;28;20028;-68
2020/12/24 11:45:12;;;;;;;33.95;16.02;;;359.30;1664.00;;;;;;5055482;28;20023;-69
2020/12/24 11:47:37;;;;;;;26.48;15.55;;;384.00;1664.00;;;;;;5054067;28;20033;-69
2020/12/24 11:50:04;;;;;;;28.50;15.98;;;384.10;1638.40;;;;;;5051227;28;20384;-68
2020/12/24 11:52:30;;;;;;;27.75;16.05;;;384.20;1664.00;;;;;;5055266;28;20099;-68
2020/12/24 11:54:55;;;;;;;31.38;15.32;;;384.30;1638.40;;;;;;5052692;28;20474;-68
2020/12/24 11:57:21;;;;;;;22.92;12.65;;;384.50;1638.40;;;;;;5054890;28;20060;-68
2020/12/24 11:59:48;;;;;;;24.83;13.88;;;384.70;1612.80;;;;;;5052602;28;20047;-69